Time;durP1;ratioP1;P1;durP2;ratioP2;P2;SDS_P1;SDS_P2;PMS_P1;PMS_P2;Temp;Humidity;BMP_temperature;BMP_pressure;BME280_temperature;BME280_humidity;BME280_pressure;Samples;Min_cycle;Max_cycle;Signal;HPM_P1;HPM_P2
2023/01/23 00:01:23;;;;;;;8.82;3.40;;;;;;;;;;4949539;28;88529;-81
2023/01/23 00:03:49;;;;;;;7.47;2.97;;;;;;;;;;4949927;28;89670;-81
2023/01/23 00:06:17;;;;;;;6.72;2.70;;;;;;;;;;4944315;28;88648;-81
2023/01/23 00:08:44;;;;;;;6.25;2.47;;;;;;;;;;4947483;28;88377;-81
2023/01/23 00:11:10;;;;;;;;;;;;;;;;;;4935825;28;91340;-81
2023/01/23 00:13:37;;;;;;;6.03;2.50;;;;;;;;;;4936179;28;101023;-81
2023/01/23 00:16:04;;;;;;;7.95;2.90;;;;;;;;;;4936661;28;88686;-82
2023/01/23 00:18:31;;;;;;;7.60;3.00;;;;;;;;;;4933955;28;88516;-81
2023/01/23 00:20:57;;;;;;;6.95;2.67;;;;;;;;;;4928217;28;90765;-82
2023/01/23 00:23:24;;;;;;;7.07;2.95;;;;;;;;;;4929498;28;89694;-82
2023/01/23 00:25:50;;;;;;;7.75;2.88;;;;;;;;;;4939723;28;89142;-82
2023/01/23 00:28:16;;;;;;;6.95;2.63;;;;;;;;;;4934481;28;88659;-82
2023/01/23 00:30:43;;;;;;;7.20;2.95;;;;;;;;;;4938493;28;88471;-82
2023/01/23 00:33:09;;;;;;;7.32;2.85;;;;;;;;;;4927615;28;88183;-82
2023/01/23 00:35:36;;;;;;;8.20;3.00;;;;;;;;;;4933999;28;88573;-81
2023/01/23 00:38:02;;;;;;;7.50;3.10;;;;;;;;;;4923899;28;91246;-82
2023/01/23 00:40:29;;;;;;;11.27;3.20;;;;;;;;;;4938997;28;87484;-82
2023/01/23 00:42:55;;;;;;;8.65;3.17;;;;;;;;;;4925641;28;88781;-82
2023/01/23 00:45:21;;;;;;;9.65;3.17;;;;;;;;;;4930941;28;91350;-81
2023/01/23 00:47:48;;;;;;;10.02;3.22;;;;;;;;;;4930980;28;88850;-81
2023/01/23 00:50:14;;;;;;;8.93;2.95;;;;;;;;;;4940093;28;89050;-81
2023/01/23 00:52:41;;;;;;;8.65;3.00;;;;;;;;;;4928789;28;88895;-81
2023/01/23 00:55:09;;;;;;;7.38;3.20;;;;;;;;;;4946950;28;88453;-82
2023/01/23 00:57:35;;;;;;;7.15;2.75;;;;;;;;;;4950469;28;91467;-81
2023/01/23 01:00:02;;;;;;;8.55;3.33;;;;;;;;;;4952525;28;87999;-81
2023/01/23 01:02:29;;;;;;;7.45;2.72;;;;;;;;;;4951198;28;89368;-81
2023/01/23 01:04:55;;;;;;;9.40;3.10;;;;;;;;;;4953417;28;87824;-81
2023/01/23 01:07:21;;;;;;;7.30;3.03;;;;;;;;;;4941345;28;90011;-81
2023/01/23 01:09:48;;;;;;;7.18;3.00;;;;;;;;;;4944565;28;89730;-81
2023/01/23 01:12:15;;;;;;;8.02;3.20;;;;;;;;;;4931513;28;91761;-81
2023/01/23 01:14:41;;;;;;;7.30;3.13;;;;;;;;;;4935990;28;88420;-81
2023/01/23 01:17:08;;;;;;;8.02;3.25;;;;;;;;;;4952629;28;88461;-81
2023/01/23 01:19:35;;;;;;;7.80;2.95;;;;;;;;;;4952432;28;88725;-80
2023/01/23 01:22:01;;;;;;;7.32;3.40;;;;;;;;;;4952675;28;88791;-81
2023/01/23 01:24:27;;;;;;;7.88;3.05;;;;;;;;;;4953099;28;88724;-80
2023/01/23 01:26:54;;;;;;;7.40;3.10;;;;;;;;;;4948524;28;88503;-80
2023/01/23 01:29:21;;;;;;;7.95;2.63;;;;;;;;;;4940968;28;91257;-80
2023/01/23 01:31:48;;;;;;;8.05;3.30;;;;;;;;;;4951815;28;88403;-79
2023/01/23 01:34:14;;;;;;;7.70;3.28;;;;;;;;;;4951166;28;90598;-80
2023/01/23 01:36:41;;;;;;;7.22;3.30;;;;;;;;;;4944979;28;91832;-80
2023/01/23 01:39:07;;;;;;;8.90;3.03;;;;;;;;;;4954654;28;88384;-80
2023/01/23 01:41:34;;;;;;;8.32;3.13;;;;;;;;;;4953160;28;88992;-79
2023/01/23 01:44:01;;;;;;;8.90;3.30;;;;;;;;;;4960966;28;90633;-80
2023/01/23 01:46:31;;;;;;;8.43;3.50;;;;;;;;;;4954823;28;88066;-81
2023/01/23 01:49:02;;;;;;;6.88;3.30;;;;;;;;;;4955300;28;89988;-80
2023/01/23 01:51:37;;;;;;;8.50;3.30;;;;;;;;;;4953577;28;88909;-80
2023/01/23 01:54:04;;;;;;;8.90;3.08;;;;;;;;;;4949940;28;94718;-81
2023/01/23 01:56:32;;;;;;;7.10;3.28;;;;;;;;;;4940520;28;88419;-81
2023/01/23 01:59:00;;;;;;;7.40;3.17;;;;;;;;;;4940814;28;91611;-81
2023/01/23 02:01:27;;;;;;;8.35;3.53;;;;;;;;;;4949247;28;91596;-81
2023/01/23 02:03:53;;;;;;;8.35;3.22;;;;;;;;;;4951935;28;88576;-81
2023/01/23 02:06:20;;;;;;;7.95;3.20;;;;;;;;;;4950389;28;88468;-81
2023/01/23 02:08:53;;;;;;;8.85;3.42;;;;;;;;;;4947233;28;91228;-81
2023/01/23 02:11:20;;;;;;;9.05;3.47;;;;;;;;;;4932558;28;90880;-81
2023/01/23 02:13:47;;;;;;;;;;;;;;;;;;4931228;28;89479;-81
2023/01/23 02:16:16;;;;;;;7.32;2.95;;;;;;;;;;4934231;28;98378;-81
2023/01/23 02:18:46;;;;;;;9.77;3.30;;;;;;;;;;4932190;28;87955;-81
2023/01/23 02:21:14;;;;;;;8.75;3.65;;;;;;;;;;4934242;28;89837;-81
2023/01/23 02:24:02;;;;;;;9.43;3.97;;;;;;;;;;4947699;28;91028;-81
2023/01/23 02:26:31;;;;;;;9.02;3.85;;;;;;;;;;4953861;28;90388;-81
2023/01/23 02:28:58;;;;;;;8.32;3.60;;;;;;;;;;4950450;28;91591;-81
2023/01/23 02:31:30;;;;;;;8.50;3.75;;;;;;;;;;4950251;28;89462;-81
2023/01/23 02:33:58;;;;;;;8.35;3.47;;;;;;;;;;4950130;28;94188;-80
2023/01/23 02:36:27;;;;;;;7.68;3.40;;;;;;;;;;4945171;28;89452;-81
2023/01/23 02:39:04;;;;;;;10.55;3.85;;;;;;;;;;4930506;28;91041;-81
2023/01/23 02:41:33;;;;;;;8.68;3.80;;;;;;;;;;4933328;28;89805;-80
2023/01/23 02:44:03;;;;;;;8.82;3.72;;;;;;;;;;4931314;28;90747;-81
2023/01/23 02:46:30;;;;;;;9.40;3.70;;;;;;;;;;4932250;28;88596;-81
2023/01/23 02:48:56;;;;;;;9.45;4.28;;;;;;;;;;4930747;28;91514;-81
2023/01/23 02:51:23;;;;;;;8.57;3.30;;;;;;;;;;4930009;28;92465;-81
2023/01/23 02:53:50;;;;;;;8.45;3.13;;;;;;;;;;4927444;28;89757;-81
2023/01/23 02:56:17;;;;;;;8.02;3.47;;;;;;;;;;4931931;28;89425;-81
2023/01/23 03:01:28;;;;;;;8.55;3.25;;;;;;;;;;4936880;28;90023;-81
2023/01/23 03:03:55;;;;;;;7.60;3.05;;;;;;;;;;4951904;28;88371;-81
2023/01/23 03:06:22;;;;;;;7.50;3.20;;;;;;;;;;4927497;28;88379;-81
2023/01/23 03:08:49;;;;;;;8.40;3.50;;;;;;;;;;4941149;28;90945;-81
2023/01/23 03:11:17;;;;;;;8.95;3.80;;;;;;;;;;4930579;28;89725;-81
2023/01/23 03:13:44;;;;;;;8.32;3.10;;;;;;;;;;4948889;28;88933;-82
2023/01/23 03:16:11;;;;;;;10.52;3.38;;;;;;;;;;4948568;28;91118;-81
2023/01/23 03:18:38;;;;;;;8.70;3.38;;;;;;;;;;4948701;28;91170;-82
2023/01/23 03:21:19;;;;;;;9.20;3.75;;;;;;;;;;4947592;28;90337;-81
2023/01/23 03:23:47;;;;;;;8.80;3.60;;;;;;;;;;4939637;28;90356;-81
2023/01/23 03:26:13;;;;;;;;;;;;;;;;;;4952583;28;91246;-81
2023/01/23 03:31:25;;;;;;;9.18;3.50;;;;;;;;;;4950566;28;88446;-81
2023/01/23 03:33:52;;;;;;;9.18;3.65;;;;;;;;;;4947329;28;87311;-81
2023/01/23 03:36:19;;;;;;;9.63;3.38;;;;;;;;;;4944354;28;90824;-81
2023/01/23 03:41:32;;;;;;;9.23;3.63;;;;;;;;;;4951561;28;90413;-80
2023/01/23 03:44:01;;;;;;;10.20;3.60;;;;;;;;;;4952823;28;91982;-80
2023/01/23 03:46:28;;;;;;;9.98;3.78;;;;;;;;;;4952195;28;92168;-80
2023/01/23 03:48:54;;;;;;;8.90;3.83;;;;;;;;;;4937301;28;90728;-81
2023/01/23 03:51:21;;;;;;;7.93;3.33;;;;;;;;;;4951869;28;90447;-80
2023/01/23 03:53:48;;;;;;;9.27;3.65;;;;;;;;;;4941929;28;89311;-81
2023/01/23 03:56:14;;;;;;;9.93;3.60;;;;;;;;;;4949577;28;90300;-81
2023/01/23 03:58:41;;;;;;;8.70;3.55;;;;;;;;;;4950976;28;89405;-82
2023/01/23 04:01:08;;;;;;;9.65;3.97;;;;;;;;;;4956559;28;88034;-81
2023/01/23 04:03:37;;;;;;;8.23;3.58;;;;;;;;;;4955117;28;89420;-81
2023/01/23 04:06:04;;;;;;;8.65;3.22;;;;;;;;;;4960210;28;91378;-81
2023/01/23 04:08:30;;;;;;;9.90;4.03;;;;;;;;;;4949145;28;90068;-81
2023/01/23 04:11:04;;;;;;;7.82;3.80;;;;;;;;;;4956927;28;91103;-82
2023/01/23 04:13:30;;;;;;;9.45;3.60;;;;;;;;;;4956822;28;88039;-82
2023/01/23 04:15:58;;;;;;;9.65;3.70;;;;;;;;;;4951257;28;94608;-82
2023/01/23 04:18:25;;;;;;;10.05;3.90;;;;;;;;;;4928225;28;91189;-81
2023/01/23 04:20:51;;;;;;;8.93;3.40;;;;;;;;;;4954014;28;88544;-82
2023/01/23 04:23:18;;;;;;;8.18;3.55;;;;;;;;;;4946281;28;90981;-82
2023/01/23 04:25:45;;;;;;;9.25;3.80;;;;;;;;;;4934284;28;91034;-83
2023/01/23 04:28:12;;;;;;;7.82;3.35;;;;;;;;;;4954587;28;87966;-82
2023/01/23 04:30:39;;;;;;;9.68;3.45;;;;;;;;;;4951635;28;91862;-81
2023/01/23 04:33:14;;;;;;;11.00;3.65;;;;;;;;;;4955300;28;91348;-81
2023/01/23 04:35:47;;;;;;;8.98;3.97;;;;;;;;;;4935816;28;90686;-81
2023/01/23 04:38:14;;;;;;;9.75;3.40;;;;;;;;;;4952153;28;91094;-81
2023/01/23 04:40:40;;;;;;;11.45;4.07;;;;;;;;;;4951728;28;90203;-83
2023/01/23 04:43:08;;;;;;;8.13;3.35;;;;;;;;;;4951795;28;88489;-80
2023/01/23 04:45:40;;;;;;;9.55;4.38;;;;;;;;;;4950775;28;91628;-82
2023/01/23 04:48:24;;;;;;;9.00;3.58;;;;;;;;;;4951531;28;87513;-81
2023/01/23 04:50:52;;;;;;;11.57;3.95;;;;;;;;;;4951320;28;90606;-80
2023/01/23 04:53:19;;;;;;;9.88;4.13;;;;;;;;;;4944269;28;91018;-80
2023/01/23 04:55:51;;;;;;;12.32;3.92;;;;;;;;;;4949776;28;94143;-80
2023/01/23 04:58:18;;;;;;;12.60;3.70;;;;;;;;;;4933825;28;90801;-81
2023/01/23 05:00:45;;;;;;;10.68;4.07;;;;;;;;;;4951159;28;89196;-81
2023/01/23 05:03:12;;;;;;;10.43;3.72;;;;;;;;;;4951734;28;90320;-80
2023/01/23 05:05:43;;;;;;;9.40;3.97;;;;;;;;;;4950915;28;91054;-81
2023/01/23 05:08:11;;;;;;;9.77;3.92;;;;;;;;;;4929049;28;90173;-80
2023/01/23 05:10:38;;;;;;;9.63;3.90;;;;;;;;;;4950127;28;89957;-83
2023/01/23 05:13:09;;;;;;;8.93;3.58;;;;;;;;;;4952591;28;90121;-81
2023/01/23 05:15:35;;;;;;;9.65;3.45;;;;;;;;;;4956212;28;88084;-81
2023/01/23 05:18:03;;;;;;;9.60;3.90;;;;;;;;;;4954172;28;88503;-80
2023/01/23 05:20:33;;;;;;;10.85;4.22;;;;;;;;;;4950601;28;88734;-80
2023/01/23 05:23:01;;;;;;;9.18;3.97;;;;;;;;;;4947142;28;90127;-80
2023/01/23 05:25:41;;;;;;;7.95;3.38;;;;;;;;;;4946510;28;91753;-80
2023/01/23 05:28:09;;;;;;;12.20;4.18;;;;;;;;;;4939005;28;89799;-80
2023/01/23 05:30:42;;;;;;;8.13;3.22;;;;;;;;;;4951255;28;90720;-81
2023/01/23 05:33:19;;;;;;;10.43;3.58;;;;;;;;;;4931292;28;90763;-81
2023/01/23 05:35:45;;;;;;;9.20;3.95;;;;;;;;;;4930257;28;90916;-80
2023/01/23 05:38:12;;;;;;;9.48;3.75;;;;;;;;;;4934675;28;89901;-81
2023/01/23 05:40:40;;;;;;;7.53;3.42;;;;;;;;;;4927722;28;90267;-81
2023/01/23 05:43:13;;;;;;;9.10;3.90;;;;;;;;;;4928683;28;88295;-81
2023/01/23 05:46:00;;;;;;;9.63;4.25;;;;;;;;;;4931939;28;95011;-81
2023/01/23 05:48:47;;;;;;;9.25;4.30;;;;;;;;;;4931599;28;90367;-81
2023/01/23 05:51:14;;;;;;;10.55;4.35;;;;;;;;;;4930932;28;89578;-80
2023/01/23 05:53:41;;;;;;;9.30;4.32;;;;;;;;;;4920186;28;91601;-81
2023/01/23 05:56:08;;;;;;;9.23;3.63;;;;;;;;;;4927346;28;88188;-81
2023/01/23 05:58:44;;;;;;;8.70;3.67;;;;;;;;;;4929112;28;88870;-81
2023/01/23 06:01:18;;;;;;;10.25;3.70;;;;;;;;;;4932647;28;90855;-81
2023/01/23 06:04:03;;;;;;;10.20;4.10;;;;;;;;;;4924612;28;92679;-81
2023/01/23 06:06:49;;;;;;;9.55;3.85;;;;;;;;;;4933448;28;88736;-82
2023/01/23 06:09:16;;;;;;;8.40;3.42;;;;;;;;;;4926759;28;89381;-81
2023/01/23 06:11:43;;;;;;;9.13;3.97;;;;;;;;;;4931647;28;89691;-81
2023/01/23 06:14:09;;;;;;;10.95;4.22;;;;;;;;;;4955292;28;88512;-82
2023/01/23 06:16:35;;;;;;;9.20;3.95;;;;;;;;;;4932343;28;90461;-81
2023/01/23 06:19:03;;;;;;;10.20;4.07;;;;;;;;;;4931877;28;89488;-81
2023/01/23 06:21:32;;;;;;;8.95;3.75;;;;;;;;;;4938755;28;90714;-81
2023/01/23 06:23:58;;;;;;;9.18;3.85;;;;;;;;;;4953338;28;89635;-81
2023/01/23 06:26:26;;;;;;;8.52;4.18;;;;;;;;;;4954260;28;91431;-82
2023/01/23 06:28:53;;;;;;;7.63;3.53;;;;;;;;;;4944554;28;89491;-81
2023/01/23 06:31:20;;;;;;;10.15;4.10;;;;;;;;;;4932980;28;90548;-81
2023/01/23 06:33:58;;;;;;;9.32;3.70;;;;;;;;;;4941724;28;96042;-81
2023/01/23 06:36:29;;;;;;;8.43;3.83;;;;;;;;;;4929988;28;90171;-82
2023/01/23 06:38:55;;;;;;;9.90;4.32;;;;;;;;;;4931049;28;91784;-81
2023/01/23 06:41:27;;;;;;;11.20;4.50;;;;;;;;;;4950147;28;91212;-82
2023/01/23 06:43:59;;;;;;;9.15;3.88;;;;;;;;;;4949731;28;94204;-81
2023/01/23 06:46:26;;;;;;;8.63;3.78;;;;;;;;;;4952998;28;90575;-82
2023/01/23 06:48:53;;;;;;;7.75;3.47;;;;;;;;;;4950157;28;89915;-82
2023/01/23 06:51:19;;;;;;;8.13;3.70;;;;;;;;;;4944054;28;90766;-82
2023/01/23 06:53:47;;;;;;;10.05;4.22;;;;;;;;;;4952341;28;90598;-83
2023/01/23 06:56:14;;;;;;;8.10;3.50;;;;;;;;;;4951439;28;88046;-82
2023/01/23 06:58:42;;;;;;;9.02;3.83;;;;;;;;;;4949702;28;89733;-83
2023/01/23 07:01:17;;;;;;;9.57;4.00;;;;;;;;;;4948892;28;91691;-82
2023/01/23 07:04:19;;;;;;;9.18;3.88;;;;;;;;;;4898038;28;92079;-83
2023/01/23 07:06:48;;;;;;;11.02;4.20;;;;;;;;;;4936417;28;89800;-81
2023/01/23 07:09:17;;;;;;;8.98;4.40;;;;;;;;;;4947589;28;89564;-83
2023/01/23 07:11:50;;;;;;;11.65;5.25;;;;;;;;;;4948377;28;91556;-82
2023/01/23 07:14:16;;;;;;;12.55;5.05;;;;;;;;;;4949500;28;90868;-81
2023/01/23 07:16:45;;;;;;;12.23;5.80;;;;;;;;;;4949456;28;88894;-81
2023/01/23 07:19:12;;;;;;;15.00;5.75;;;;;;;;;;4949836;28;89886;-82
2023/01/23 07:21:39;;;;;;;12.65;5.07;;;;;;;;;;4932593;28;90667;-81
2023/01/23 07:24:06;;;;;;;13.00;5.63;;;;;;;;;;4951177;28;89119;-81
2023/01/23 07:26:32;;;;;;;11.68;5.97;;;;;;;;;;4950677;28;89033;-82
2023/01/23 07:28:59;;;;;;;12.93;6.68;;;;;;;;;;4952845;28;89270;-81
2023/01/23 07:31:25;;;;;;;13.57;6.30;;;;;;;;;;4950916;28;88414;-81
2023/01/23 07:33:51;;;;;;;11.90;5.78;;;;;;;;;;4949107;28;88690;-80
2023/01/23 07:36:18;;;;;;;9.95;5.40;;;;;;;;;;4950875;28;88230;-80
2023/01/23 07:38:44;;;;;;;11.70;5.05;;;;;;;;;;4941971;28;91770;-80
2023/01/23 07:41:11;;;;;;;11.38;4.90;;;;;;;;;;4938422;28;88447;-80
2023/01/23 07:43:37;;;;;;;13.05;5.07;;;;;;;;;;4951954;28;88160;-80
2023/01/23 07:46:04;;;;;;;14.43;5.13;;;;;;;;;;4950958;28;87979;-80
2023/01/23 07:48:30;;;;;;;11.10;4.43;;;;;;;;;;4948496;28;88737;-81
2023/01/23 07:51:00;;;;;;;10.23;4.28;;;;;;;;;;4953407;28;89416;-80
2023/01/23 07:53:26;;;;;;;12.50;4.32;;;;;;;;;;4944821;28;89964;-81
2023/01/23 07:55:52;;;;;;;12.63;4.10;;;;;;;;;;4929716;28;88633;-81
2023/01/23 07:58:19;;;;;;;9.43;3.40;;;;;;;;;;4934745;28;89471;-81
2023/01/23 08:00:45;;;;;;;10.30;3.55;;;;;;;;;;4945852;28;88655;-81
2023/01/23 08:03:12;;;;;;;7.65;3.00;;;;;;;;;;4945915;28;88317;-82
2023/01/23 08:05:38;;;;;;;7.70;2.97;;;;;;;;;;4945652;28;88864;-82
2023/01/23 08:08:05;;;;;;;8.40;2.88;;;;;;;;;;4942598;28;87852;-82
2023/01/23 08:10:39;;;;;;;7.82;2.70;;;;;;;;;;4948219;28;90341;-82
2023/01/23 08:13:06;;;;;;;5.78;2.65;;;;;;;;;;4946290;28;88340;-82
2023/01/23 08:15:32;;;;;;;7.18;2.70;;;;;;;;;;4947082;28;89106;-82
2023/01/23 08:17:59;;;;;;;6.15;2.75;;;;;;;;;;4946643;28;89219;-82
2023/01/23 08:20:25;;;;;;;7.18;2.97;;;;;;;;;;4949604;28;88765;-82
2023/01/23 08:22:51;;;;;;;7.38;2.50;;;;;;;;;;4947192;28;90857;-82
2023/01/23 08:25:18;;;;;;;6.35;2.58;;;;;;;;;;4949427;28;88597;-82
2023/01/23 08:27:44;;;;;;;6.93;2.63;;;;;;;;;;4951045;28;88542;-82
2023/01/23 08:30:11;;;;;;;5.57;2.58;;;;;;;;;;4948880;28;88283;-82
2023/01/23 08:32:37;;;;;;;6.63;2.78;;;;;;;;;;4952940;28;87424;-82
2023/01/23 08:35:04;;;;;;;7.30;2.60;;;;;;;;;;4950279;28;88887;-81
2023/01/23 08:37:32;;;;;;;6.28;2.65;;;;;;;;;;4953231;28;88431;-81
2023/01/23 08:39:59;;;;;;;7.53;2.60;;;;;;;;;;4947146;28;94179;-82
2023/01/23 08:42:25;;;;;;;7.90;2.67;;;;;;;;;;4953399;28;90163;-82
2023/01/23 08:44:51;;;;;;;6.78;2.60;;;;;;;;;;4949830;28;89596;-79
2023/01/23 08:47:18;;;;;;;7.80;2.53;;;;;;;;;;4947994;28;89417;-80
2023/01/23 08:49:44;;;;;;;7.32;2.72;;;;;;;;;;4938273;28;88081;-79
2023/01/23 08:52:11;;;;;;;6.82;2.63;;;;;;;;;;4942301;28;88549;-80
2023/01/23 08:54:37;;;;;;;8.20;3.00;;;;;;;;;;4944168;28;88644;-79
2023/01/23 08:57:04;;;;;;;7.35;2.90;;;;;;;;;;4945390;28;87383;-81
2023/01/23 08:59:30;;;;;;;6.85;2.90;;;;;;;;;;4950806;28;88410;-80
2023/01/23 09:01:57;;;;;;;7.45;2.80;;;;;;;;;;4950189;28;88453;-80
2023/01/23 09:04:23;;;;;;;6.32;2.63;;;;;;;;;;4945768;28;88802;-80
2023/01/23 09:06:50;;;;;;;6.30;2.72;;;;;;;;;;4932440;28;88560;-79
2023/01/23 09:09:17;;;;;;;6.47;2.60;;;;;;;;;;4938981;28;89794;-80
2023/01/23 09:11:45;;;;;;;7.60;2.75;;;;;;;;;;4945738;28;89621;-80
2023/01/23 09:14:11;;;;;;;6.22;2.50;;;;;;;;;;4950553;28;88645;-80
2023/01/23 09:16:39;;;;;;;7.18;2.90;;;;;;;;;;4954929;28;88131;-80
2023/01/23 09:19:07;;;;;;;8.93;2.80;;;;;;;;;;4948811;28;89384;-80
2023/01/23 09:21:33;;;;;;;8.65;3.10;;;;;;;;;;4944213;28;87575;-80
2023/01/23 09:23:59;;;;;;;6.28;2.70;;;;;;;;;;4952223;28;88293;-80
2023/01/23 09:26:26;;;;;;;6.38;2.60;;;;;;;;;;4952208;28;88697;-80
2023/01/23 09:28:53;;;;;;;6.00;2.75;;;;;;;;;;4942088;28;88808;-80
2023/01/23 09:31:19;;;;;;;5.78;2.35;;;;;;;;;;4932685;28;89449;-80
2023/01/23 09:33:47;;;;;;;7.50;2.83;;;;;;;;;;4931762;28;88800;-80
2023/01/23 09:36:14;;;;;;;6.05;2.75;;;;;;;;;;4929043;28;88507;-80
2023/01/23 09:38:40;;;;;;;7.35;2.35;;;;;;;;;;4935490;28;88451;-80
2023/01/23 09:41:15;;;;;;;6.00;2.60;;;;;;;;;;4931364;28;90455;-80
2023/01/23 09:43:44;;;;;;;7.30;2.72;;;;;;;;;;4932166;28;88580;-80
2023/01/23 09:46:19;;;;;;;6.40;2.60;;;;;;;;;;4934125;28;88112;-80
2023/01/23 09:48:47;;;;;;;7.97;2.50;;;;;;;;;;4931002;28;88490;-80
2023/01/23 09:51:16;;;;;;;6.78;2.55;;;;;;;;;;4922909;28;88148;-80
2023/01/23 09:53:43;;;;;;;6.97;2.35;;;;;;;;;;4928477;28;89664;-80
2023/01/23 09:56:18;;;;;;;6.65;2.80;;;;;;;;;;4923274;28;88542;-80
2023/01/23 09:58:50;;;;;;;6.45;2.65;;;;;;;;;;4932106;28;90199;-80
2023/01/23 10:01:17;;;;;;;6.50;2.65;;;;;;;;;;4934890;28;89552;-80
2023/01/23 10:03:43;;;;;;;6.28;2.65;;;;;;;;;;4929984;28;91876;-80
2023/01/23 10:06:22;;;;;;;6.45;2.70;;;;;;;;;;4922886;28;88661;-80
2023/01/23 10:08:48;;;;;;;5.63;2.47;;;;;;;;;;4932739;28;88414;-80
2023/01/23 10:11:27;;;;;;;6.10;2.85;;;;;;;;;;4932738;28;88522;-80
2023/01/23 10:14:00;;;;;;;5.50;2.58;;;;;;;;;;4931773;28;88915;-80
2023/01/23 10:16:48;;;;;;;6.28;2.55;;;;;;;;;;4914793;28;89492;-80
2023/01/23 10:19:16;;;;;;;4.68;2.45;;;;;;;;;;4930623;28;89654;-80
2023/01/23 10:21:58;;;;;;;6.10;2.67;;;;;;;;;;4922502;28;88995;-80
2023/01/23 10:24:34;;;;;;;6.90;2.65;;;;;;;;;;4935064;28;88133;-80
2023/01/23 10:27:22;;;;;;;5.45;2.65;;;;;;;;;;4931965;28;88731;-80
2023/01/23 10:29:51;;;;;;;6.32;2.38;;;;;;;;;;4931597;28;88510;-79
2023/01/23 10:32:27;;;;;;;5.20;2.33;;;;;;;;;;4930232;28;90810;-80
2023/01/23 10:34:57;;;;;;;6.00;2.42;;;;;;;;;;4930643;28;88721;-80
2023/01/23 10:37:38;;;;;;;5.07;2.33;;;;;;;;;;4929159;28;87483;-80
2023/01/23 10:40:13;;;;;;;5.57;2.40;;;;;;;;;;4932650;28;92375;-80
2023/01/23 10:42:39;;;;;;;5.10;2.40;;;;;;;;;;4932877;28;88549;-80
2023/01/23 10:45:12;;;;;;;5.25;2.60;;;;;;;;;;4930977;28;89072;-80
2023/01/23 10:47:43;;;;;;;5.03;2.22;;;;;;;;;;4933164;28;89793;-80
2023/01/23 10:50:13;;;;;;;5.55;2.40;;;;;;;;;;4922349;28;88334;-80
2023/01/23 10:52:46;;;;;;;5.10;2.58;;;;;;;;;;4931588;28;87960;-80
2023/01/23 10:55:19;;;;;;;7.30;2.47;;;;;;;;;;4930637;28;91109;-81
2023/01/23 10:57:47;;;;;;;4.50;2.33;;;;;;;;;;4913807;28;90428;-80
2023/01/23 11:00:17;;;;;;;5.97;2.47;;;;;;;;;;4930962;28;88448;-80
2023/01/23 11:02:43;;;;;;;5.30;2.50;;;;;;;;;;4932322;28;88269;-80
2023/01/23 11:05:28;;;;;;;4.82;2.60;;;;;;;;;;4921722;28;88568;-80
2023/01/23 11:07:56;;;;;;;4.78;2.40;;;;;;;;;;4935379;28;90339;-80
2023/01/23 11:10:23;;;;;;;4.90;2.40;;;;;;;;;;4919990;28;88846;-80
2023/01/23 11:12:51;;;;;;;5.00;2.20;;;;;;;;;;4912400;28;89061;-80
2023/01/23 11:15:22;;;;;;;5.35;2.38;;;;;;;;;;4910716;28;88769;-80
2023/01/23 11:17:50;;;;;;;5.20;2.40;;;;;;;;;;4909246;28;88049;-80
2023/01/23 11:20:23;;;;;;;5.00;2.30;;;;;;;;;;4923818;28;89670;-80
2023/01/23 11:23:05;;;;;;;4.75;2.22;;;;;;;;;;4950273;28;90545;-80
2023/01/23 11:25:34;;;;;;;5.28;2.45;;;;;;;;;;4950822;28;89463;-78
2023/01/23 11:28:03;;;;;;;5.65;2.10;;;;;;;;;;4934233;28;88485;-80
2023/01/23 11:30:59;;;;;;;4.97;2.33;;;;;;;;;;4924503;28;89691;-80
2023/01/23 11:33:43;;;;;;;5.22;2.20;;;;;;;;;;4917813;28;88487;-80
2023/01/23 11:36:12;;;;;;;5.47;2.35;;;;;;;;;;4928778;28;89874;-80
2023/01/23 11:38:42;;;;;;;4.85;2.38;;;;;;;;;;4931125;28;88156;-80
2023/01/23 11:41:19;;;;;;;5.55;2.65;;;;;;;;;;4930327;28;88699;-80
2023/01/23 11:43:45;;;;;;;9.02;3.15;;;;;;;;;;4945713;28;90727;-80
2023/01/23 11:46:30;;;;;;;8.32;3.60;;;;;;;;;;4944149;28;88502;-81
2023/01/23 11:49:08;;;;;;;7.78;3.45;;;;;;;;;;4949702;28;89620;-82
2023/01/23 11:51:40;;;;;;;10.25;3.97;;;;;;;;;;4945948;28;90952;-79
2023/01/23 11:54:17;;;;;;;8.32;4.28;;;;;;;;;;4952830;28;88376;-79
2023/01/23 11:56:52;;;;;;;12.27;4.95;;;;;;;;;;4948109;28;88332;-78
2023/01/23 11:59:28;;;;;;;10.25;4.97;;;;;;;;;;4950738;28;88418;-80
2023/01/23 12:02:15;;;;;;;11.13;4.15;;;;;;;;;;4948204;28;89736;-78
2023/01/23 12:04:44;;;;;;;9.75;3.90;;;;;;;;;;4950803;28;88895;-79
2023/01/23 12:07:20;;;;;;;12.95;4.22;;;;;;;;;;4949031;28;88154;-80
2023/01/23 12:09:49;;;;;;;13.80;4.22;;;;;;;;;;4950814;28;89540;-79
2023/01/23 12:12:35;;;;;;;13.55;4.03;;;;;;;;;;4949932;28;90092;-80
2023/01/23 12:15:04;;;;;;;9.70;3.67;;;;;;;;;;4947678;28;88074;-80
2023/01/23 12:17:32;;;;;;;7.95;3.63;;;;;;;;;;4949857;28;88924;-79
2023/01/23 12:20:00;;;;;;;10.30;3.55;;;;;;;;;;4950746;28;93122;-79
2023/01/23 12:22:38;;;;;;;11.55;3.97;;;;;;;;;;4951836;28;88394;-80
2023/01/23 12:25:14;;;;;;;7.97;3.75;;;;;;;;;;4952721;28;89208;-79
2023/01/23 12:27:45;;;;;;;10.68;3.90;;;;;;;;;;4950241;28;90111;-80
2023/01/23 12:30:24;;;;;;;9.75;3.92;;;;;;;;;;4942576;28;93765;-81
2023/01/23 12:33:02;;;;;;;11.60;4.22;;;;;;;;;;4946718;28;88457;-81
2023/01/23 12:35:34;;;;;;;13.85;6.35;;;;;;;;;;4946483;28;88243;-78
2023/01/23 12:38:19;;;;;;;14.32;6.47;;;;;;;;;;4941042;28;93428;-80
2023/01/23 12:40:49;;;;;;;16.50;8.07;;;;;;;;;;4952447;28;91895;-82
2023/01/23 12:43:39;;;;;;;15.10;7.55;;;;;;;;;;4958142;28;87993;-80
2023/01/23 12:46:09;;;;;;;13.75;7.07;;;;;;;;;;4952720;28;91652;-81
2023/01/23 12:48:39;;;;;;;14.18;7.30;;;;;;;;;;4951416;28;88208;-81
2023/01/23 12:51:13;;;;;;;12.77;6.47;;;;;;;;;;4950924;28;90009;-81
2023/01/23 12:53:40;;;;;;;12.55;6.32;;;;;;;;;;4950401;28;90455;-81
2023/01/23 12:56:06;;;;;;;;;;;;;;;;;;4954179;28;88032;-82
2023/01/23 12:58:35;;;;;;;13.57;6.10;;;;;;;;;;4949881;28;101383;-82
2023/01/23 13:01:04;;;;;;;12.23;5.88;;;;;;;;;;4942222;28;88742;-81
2023/01/23 13:03:43;;;;;;;12.32;5.38;;;;;;;;;;4956806;28;88677;-81
2023/01/23 13:06:36;;;;;;;10.63;5.20;;;;;;;;;;4936835;28;94453;-82
2023/01/23 13:09:19;;;;;;;12.18;4.88;;;;;;;;;;4919143;28;91065;-80
2023/01/23 13:11:54;;;;;;;11.38;5.05;;;;;;;;;;4931260;28;89198;-81
2023/01/23 13:14:23;;;;;;;9.32;4.75;;;;;;;;;;4949799;28;89979;-82
2023/01/23 13:16:56;;;;;;;9.25;4.55;;;;;;;;;;4954354;28;88533;-84
2023/01/23 13:22:22;;;;;;;10.27;4.38;;;;;;;;;;4954320;28;93542;-80
2023/01/23 13:25:11;;;;;;;9.85;4.30;;;;;;;;;;4937479;28;88913;-82
2023/01/23 13:27:39;;;;;;;10.82;4.47;;;;;;;;;;4946923;28;89051;-80
2023/01/23 13:30:31;;;;;;;10.20;4.50;;;;;;;;;;4934728;28;88308;-82
2023/01/23 13:33:05;;;;;;;8.95;4.10;;;;;;;;;;4947002;28;88405;-82
2023/01/23 13:35:38;;;;;;;10.82;4.10;;;;;;;;;;4951912;28;88744;-81
2023/01/23 13:38:28;;;;;;;9.10;4.28;;;;;;;;;;4951134;28;88332;-82
2023/01/23 13:41:03;;;;;;;9.13;3.72;;;;;;;;;;4951320;28;88192;-81
2023/01/23 13:43:48;;;;;;;8.32;3.75;;;;;;;;;;4950223;28;89719;-82
2023/01/23 13:46:30;;;;;;;9.02;3.60;;;;;;;;;;4941965;28;92178;-83
2023/01/23 13:51:59;;;;;;;8.25;3.65;;;;;;;;;;4890657;28;92064;-82
2023/01/23 13:57:38;;;;;;;7.47;3.55;;;;;;;;;;4758147;29;88828;-82
2023/01/23 14:00:21;;;;;;;6.75;3.45;;;;;;;;;;4718461;29;90275;-83
2023/01/23 14:06:15;;;;;;;6.90;2.97;;;;;;;;;;4644509;30;94120;-82
2023/01/23 14:08:56;;;;;;;7.57;3.35;;;;;;;;;;4658664;30;89640;-82
2023/01/23 14:11:37;;;;;;;6.78;3.17;;;;;;;;;;4653184;30;88686;-82
2023/01/23 14:17:16;;;;;;;7.50;2.72;;;;;;;;;;4697325;29;89810;-82
2023/01/23 14:20:01;;;;;;;7.10;3.40;;;;;;;;;;4766783;29;95068;-82
2023/01/23 14:22:42;;;;;;;7.22;3.20;;;;;;;;;;4715506;29;88482;-82
2023/01/23 14:25:08;;;;;;;;;;;;;;;;;;4747996;29;88297;-82
2023/01/23 14:27:36;;;;;;;6.35;2.90;;;;;;;;;;4780095;29;99669;-81
2023/01/23 14:30:22;;;;;;;6.47;2.75;;;;;;;;;;4810615;29;88696;-82
2023/01/23 14:32:49;;;;;;;7.85;3.20;;;;;;;;;;4843653;29;88284;-81
2023/01/23 14:35:16;;;;;;;7.25;3.00;;;;;;;;;;4849449;29;88565;-81
2023/01/23 14:37:43;;;;;;;6.28;2.78;;;;;;;;;;4842132;29;88342;-82
2023/01/23 14:40:14;;;;;;;6.13;3.10;;;;;;;;;;4851589;29;89640;-80
2023/01/23 14:43:03;;;;;;;5.43;2.63;;;;;;;;;;4850933;29;89613;-81
2023/01/23 14:45:30;;;;;;;5.55;2.70;;;;;;;;;;4833539;29;88549;-80
2023/01/23 14:47:59;;;;;;;6.47;2.55;;;;;;;;;;4909130;28;92731;-80
2023/01/23 14:50:32;;;;;;;7.97;2.95;;;;;;;;;;4922442;28;88300;-83
2023/01/23 14:52:59;;;;;;;5.85;2.72;;;;;;;;;;4923397;28;88675;-80
2023/01/23 14:55:25;;;;;;;;;;;;;;;;;;4932860;28;88849;-80
2023/01/23 14:57:56;;;;;;;6.90;2.70;;;;;;;;;;4952490;28;115449;-81
2023/01/23 15:00:24;;;;;;;7.45;2.60;;;;;;;;;;4947748;28;88082;-80
2023/01/23 15:02:50;;;;;;;;;;;;;;;;;;4944912;28;88849;-80
2023/01/23 15:05:18;;;;;;;6.30;2.70;;;;;;;;;;4947585;28;98787;-80
2023/01/23 15:07:50;;;;;;;5.75;2.38;;;;;;;;;;4949137;28;88601;-80
2023/01/23 15:10:18;;;;;;;6.53;2.50;;;;;;;;;;4949018;28;87885;-81
2023/01/23 15:12:50;;;;;;;6.07;2.40;;;;;;;;;;4946072;28;88469;-81
2023/01/23 15:15:17;;;;;;;5.70;2.50;;;;;;;;;;4947868;28;89201;-80
2023/01/23 15:17:45;;;;;;;7.03;2.55;;;;;;;;;;4943049;28;88886;-81
2023/01/23 15:20:25;;;;;;;5.68;2.58;;;;;;;;;;4949421;28;89551;-82
2023/01/23 15:22:52;;;;;;;5.20;2.35;;;;;;;;;;4949678;28;89730;-81
2023/01/23 15:25:26;;;;;;;5.57;2.50;;;;;;;;;;4950488;28;88330;-82